Aviation Digital Data Service (ADDS)

Output produced by METARs form (1415 UTC 08 May 2021)
found at http://aviationweather.gov/metar/data/
 
KJAN 081354Z 17007KT 10SM SCT150 19/08 A3013 RMK AO2 SLP199 T01940083
KJAN 081120Z 0812/0912 16010KT P6SM SCT150 
     FM090500 17010KT P6SM FEW015 SCT150 WS015/19035KT